Flight Track Log - Related Links

Times and Time Zones

All times are in EDT time to prevent confusion due to time zone crossing. See the AUB1736 flight status page for this flight to view local times or setup timezone preferences in your user account.

Time Position Orientation Groundspeed Altitude Reporting Facility
EDT Latitude Longitude Course Direction KTS MPH feet Rate Location/Type
Fri 03:49:00 AM 48.1161 12.1047 138° Southeast  Level Estimated
Fri 03:50:00 AM 48.0367 12.2102 138° Southeast  Level Estimated
Fri 03:51:00 AM 47.9572 12.3154 138° Southeast  Level Estimated
Fri 03:52:00 AM 47.8776 12.4203 139° Southeast  Level Estimated
Fri 03:53:00 AM 47.7980 12.5249 139° Southeast  Level Estimated
Fri 03:54:00 AM 47.7182 12.6291 139° Southeast  Level Estimated
Fri 03:55:00 AM 47.6383 12.7331 139° Southeast  Level Estimated
Fri 03:56:00 AM 47.5583 12.8367 139° Southeast  Level Estimated
Fri 03:57:00 AM 47.4782 12.9399 139° Southeast  Level Estimated
Fri 03:58:00 AM 47.3981 13.0429 139° Southeast  Level Estimated
Fri 03:59:00 AM 47.3178 13.1456 139° Southeast  Level Estimated
Fri 04:00:00 AM 47.2375 13.2479 139° Southeast  Level Estimated
Fri 04:01:00 AM 47.1570 13.3500 139° Southeast  Level Estimated
Fri 04:02:00 AM 47.0765 13.4517 139° Southeast  Level Estimated
Fri 04:03:00 AM 46.9959 13.5532 139° Southeast  Level Estimated
Fri 04:04:00 AM 46.9152 13.6543 139° Southeast  Level Estimated
Fri 04:05:00 AM 46.8344 13.7551 139° Southeast  Level Estimated
Fri 04:06:00 AM 46.7535 13.8556 140° Southeast  Level Estimated
Fri 04:07:00 AM 46.6726 13.9558 140° Southeast  Level Estimated
Fri 04:08:00 AM 46.5915 14.0557 140° Southeast  Level Estimated
Fri 04:09:00 AM 46.5103 14.1554 140° Southeast  Level Estimated
Fri 04:10:00 AM 46.4291 14.2547 140° Southeast  Level Estimated
Fri 04:11:00 AM 46.3478 14.3537 140° Southeast  Level Estimated
Fri 04:12:00 AM 46.2664 14.4524 140° Southeast  Level Estimated
Fri 04:13:00 AM 46.1849 14.5509 140° Southeast  Level Estimated
Fri 04:14:00 AM 46.1033 14.6490 140° Southeast  Level Estimated
Fri 04:15:00 AM 46.0217 14.7469 140° Southeast  Level Estimated
Fri 04:16:00 AM 45.9399 14.8444 140° Southeast  Level Estimated
Fri 04:17:00 AM 45.8581 14.9417 140° Southeast  Level Estimated
Fri 04:18:00 AM 45.7762 15.0387 140° Southeast  Level Estimated
Fri 04:19:00 AM 45.6942 15.1354 140° Southeast  Level Estimated
Fri 04:20:00 AM 45.6122 15.2318 141° Southeast  Level Estimated
Fri 04:21:00 AM 45.5300 15.3280 141° Southeast  Level Estimated
Fri 04:22:00 AM 45.4478 15.4238 141° Southeast  Level Estimated
Fri 04:23:00 AM 45.3655 15.5194 141° Southeast  Level Estimated
Fri 04:24:00 AM 45.2831 15.6147 141° Southeast  Level Estimated
Fri 04:25:00 AM 45.2006 15.7097 141° Southeast  Level Estimated
Fri 04:26:00 AM 45.1181 15.8045 141° Southeast  Level Estimated
Fri 04:27:00 AM 45.0355 15.8990 141° Southeast  Level Estimated
Fri 04:28:00 AM 44.9528 15.9932 141° Southeast  Level Estimated
Fri 04:29:00 AM 44.8700 16.0871 141° Southeast  Level Estimated
Fri 04:30:00 AM 44.7872 16.1808 141° Southeast  Level Estimated
Fri 04:31:00 AM 44.7042 16.2742 141° Southeast  Level Estimated
Fri 04:32:00 AM 44.6212 16.3673 141° Southeast  Level Estimated
Fri 04:33:00 AM 44.5382 16.4602 141° Southeast  Level Estimated
Fri 04:34:00 AM 44.4550 16.5528 142° Southeast  Level Estimated
Fri 04:35:00 AM 44.3718 16.6451 142° Southeast  Level Estimated
Fri 04:36:00 AM 44.2885 16.7372 142° Southeast  Level Estimated
Fri 04:37:00 AM 44.2051 16.8290 142° Southeast  Level Estimated
Fri 04:38:00 AM 44.1216 16.9205 142° Southeast  Level Estimated
Fri 04:39:00 AM 44.0381 17.0118 142° Southeast  Level Estimated
Fri 04:40:00 AM 43.9545 17.1029 142° Southeast  Level Estimated
Fri 04:41:00 AM 43.8708 17.1937 142° Southeast  Level Estimated
Fri 04:42:00 AM 43.7871 17.2842 142° Southeast  Level Estimated
Fri 04:43:00 AM 43.7033 17.3745 142° Southeast  Level Estimated
Fri 04:44:00 AM 43.6194 17.4645 142° Southeast  Level Estimated
Fri 04:45:00 AM 43.5355 17.5543 142° Southeast  Level Estimated
Fri 04:46:00 AM 43.4514 17.6438 142° Southeast  Level Estimated
Fri 04:47:00 AM 43.3674 17.7330 142° Southeast  Level Estimated
Fri 04:48:00 AM 43.2832 17.8221 142° Southeast  Level Estimated
Fri 04:49:00 AM 43.1990 17.9108 142° Southeast  Level Estimated
Fri 04:50:00 AM 43.1147 17.9994 143° Southeast  Level Estimated
Fri 04:51:00 AM 43.0303 18.0877 143° Southeast  Level Estimated
Fri 04:52:00 AM 42.9459 18.1757 143° Southeast  Level Estimated
Fri 04:53:00 AM 42.8614 18.2635 143° Southeast  Level Estimated
Fri 04:54:00 AM 42.7768 18.3511 143° Southeast  Level Estimated
Fri 04:55:00 AM 42.6922 18.4384 143° Southeast  Level Estimated
Fri 04:56:00 AM 42.6074 18.5255 143° Southeast  Level Estimated
Fri 04:57:00 AM 42.5227 18.6124 143° Southeast  Level Estimated
Fri 04:58:00 AM 42.4379 18.6990 143° Southeast  Level Estimated
Fri 04:59:00 AM 42.3530 18.7854 143° Southeast  Level Estimated
Fri 05:00:00 AM 42.2680 18.8715 143° Southeast  Level Estimated
Fri 05:01:00 AM 42.1830 18.9574 143° Southeast  Level Estimated
Fri 05:02:00 AM 42.0979 19.0431 143° Southeast  Level Estimated
Fri 05:03:00 AM 42.0127 19.1286 143° Southeast  Level Estimated
Fri 05:04:00 AM 41.9275 19.2138 143° Southeast  Level Estimated
Fri 05:05:00 AM 41.8422 19.2988 143° Southeast  Level Estimated
Fri 05:06:00 AM 41.7569 19.3836 143° Southeast  Level Estimated
Fri 05:07:00 AM 41.6715 19.4681 144° Southeast  Level Estimated
Fri 05:08:00 AM 41.5860 19.5525 144° Southeast  Level Estimated
Fri 05:09:00 AM 41.5005 19.6366 144° Southeast  Level Estimated
Fri 05:10:00 AM 41.4149 19.7204 144° Southeast  Level Estimated
Fri 05:11:00 AM 41.4147 19.7206 142° Southeast  Level Estimated
Fri 05:12:00 AM 41.4147 19.7206 21° North  Level Estimated
Fri 05:13:00 AM 41.4147 19.7206 21° North  Level Estimated
Fri 05:14:00 AM 41.4147 19.7206 21° North  Level Estimated
Fri 05:15:00 AM 41.4147 19.7206 21° North  Level Estimated
Fri 05:16:00 AM 41.4147 19.7206 21° North  Level Estimated
Fri 05:17:00 AM 41.4147 19.7206 21° North  Level Estimated
Fri 05:18:00 AM 41.4147 19.7206 21° North  Level Estimated
Fri 05:19:00 AM 41.4147 19.7206 21° North  Level Estimated
Fri 05:20:00 AM 41.4147 19.7206 21° North  Level Estimated
Fri 05:21:00 AM 41.4147 19.7206 21° North  Level Estimated
Fri 05:22:00 AM 41.4147 19.7206 21° North  Level Estimated
Fri 05:23:00 AM 41.4147 19.7206 21° North  Level Estimated
Fri 05:24:00 AM 41.4147 19.7206 21° North  Level Estimated

Login

Don't have an account? Register now (free) for customized features, flight alerts, and more!